createdAt,value
2022-08-26T00:01:04.466Z,21.54
2022-08-26T00:03:36.276Z,21.50
2022-08-26T00:06:05.589Z,21.44
2022-08-26T00:08:34.122Z,21.42
2022-08-26T00:11:03.035Z,21.34
2022-08-26T00:13:31.257Z,21.32
2022-08-26T00:15:59.934Z,21.21
2022-08-26T00:18:28.208Z,21.24
2022-08-26T00:20:59.755Z,21.23
2022-08-26T00:23:34.990Z,21.08
2022-08-26T00:26:05.547Z,21.12
2022-08-26T00:28:36.651Z,21.10
2022-08-26T00:31:05.345Z,21.13
2022-08-26T00:33:35.009Z,21.16
2022-08-26T00:36:03.880Z,21.13
2022-08-26T00:38:33.343Z,21.09
2022-08-26T00:41:02.118Z,21.07
2022-08-26T00:43:46.066Z,21.03
2022-08-26T00:46:46.812Z,21.05
2022-08-26T00:49:26.000Z,21.03
2022-08-26T00:51:57.008Z,20.95
2022-08-26T00:54:30.672Z,20.97
2022-08-26T00:57:02.521Z,20.97
2022-08-26T00:59:33.270Z,20.94
2022-08-26T01:02:02.871Z,20.93
2022-08-26T01:04:35.034Z,20.91
2022-08-26T01:07:07.111Z,20.91
2022-08-26T01:09:36.388Z,20.79
2022-08-26T01:12:06.336Z,20.87
2022-08-26T01:14:36.863Z,20.80
2022-08-26T01:17:07.756Z,20.71
2022-08-26T01:19:45.935Z,20.80
2022-08-26T01:22:17.892Z,20.78
2022-08-26T01:24:47.333Z,20.69
2022-08-26T01:27:19.805Z,20.64
2022-08-26T01:29:50.393Z,20.67
2022-08-26T01:32:23.298Z,20.76
2022-08-26T01:34:52.811Z,20.73
2022-08-26T01:37:26.209Z,20.72
2022-08-26T01:39:56.630Z,20.69
2022-08-26T01:42:27.550Z,20.66
2022-08-26T01:45:09.123Z,20.60
2022-08-26T01:47:39.248Z,20.63
2022-08-26T01:50:12.606Z,20.65
2022-08-26T01:52:49.948Z,20.66
2022-08-26T01:55:33.137Z,20.53
2022-08-26T01:58:08.534Z,20.58
2022-08-26T02:00:38.334Z,20.61
2022-08-26T02:03:17.362Z,20.60
2022-08-26T02:05:51.439Z,20.60
2022-08-26T02:08:25.774Z,20.58
2022-08-26T02:10:55.376Z,20.51
2022-08-26T02:13:29.162Z,20.46
2022-08-26T02:16:00.581Z,20.30
2022-08-26T02:18:30.738Z,20.36
2022-08-26T02:21:00.415Z,20.32
2022-08-26T02:23:28.571Z,20.35
2022-08-26T02:26:04.376Z,20.28
2022-08-26T02:28:39.239Z,20.28
2022-08-26T02:31:08.566Z,20.35
2022-08-26T02:33:38.578Z,20.29
2022-08-26T02:36:12.131Z,20.30
2022-08-26T02:38:43.036Z,20.27
2022-08-26T02:41:11.363Z,20.24
2022-08-26T02:43:39.765Z,20.18
2022-08-26T02:46:08.161Z,20.21
2022-08-26T02:48:36.941Z,20.22
2022-08-26T02:51:05.680Z,20.16
2022-08-26T02:53:35.521Z,20.21
2022-08-26T02:56:07.800Z,20.12
2022-08-26T02:58:37.473Z,20.16
2022-08-26T03:01:06.194Z,20.13
2022-08-26T03:03:34.814Z,20.05
2022-08-26T03:06:03.416Z,20.11
2022-08-26T03:08:31.518Z,20.02
2022-08-26T03:11:01.673Z,19.88
2022-08-26T03:13:30.523Z,20.02
2022-08-26T03:16:01.978Z,20.07
2022-08-26T03:18:30.736Z,20.10
2022-08-26T03:21:04.473Z,20.12
2022-08-26T03:23:34.200Z,20.11
2022-08-26T03:26:03.024Z,20.14
2022-08-26T03:28:31.836Z,20.05
2022-08-26T03:31:00.410Z,20.10
2022-08-26T03:33:28.992Z,20.08
2022-08-26T03:35:57.679Z,20.07
2022-08-26T03:38:26.168Z,20.07
2022-08-26T03:40:55.574Z,20.07
2022-08-26T03:43:26.861Z,20.00
2022-08-26T03:45:55.511Z,19.93
2022-08-26T03:48:23.671Z,19.94
2022-08-26T03:50:52.008Z,19.91
2022-08-26T03:53:20.685Z,19.93
2022-08-26T03:55:48.881Z,19.81
2022-08-26T03:58:21.919Z,19.90
2022-08-26T04:00:55.759Z,19.87
2022-08-26T04:03:44.668Z,19.83
2022-08-26T04:06:13.127Z,19.84
2022-08-26T04:08:42.177Z,19.85
2022-08-26T04:11:20.059Z,19.66
2022-08-26T04:13:49.065Z,19.58
2022-08-26T04:16:20.486Z,19.54
2022-08-26T04:18:49.616Z,19.55
2022-08-26T04:21:17.838Z,19.52
2022-08-26T04:23:48.474Z,19.51
2022-08-26T04:26:19.455Z,19.43
2022-08-26T04:28:49.226Z,19.50
2022-08-26T04:31:19.449Z,19.46
2022-08-26T04:33:50.049Z,19.56
2022-08-26T04:36:20.159Z,19.67
2022-08-26T04:38:50.772Z,19.78
2022-08-26T04:41:20.672Z,19.85
2022-08-26T04:43:48.982Z,19.92
2022-08-26T04:46:22.791Z,20.00
2022-08-26T04:48:53.761Z,20.00
2022-08-26T04:51:28.071Z,20.13
2022-08-26T04:53:58.377Z,20.20
2022-08-26T04:56:28.637Z,20.13
2022-08-26T04:58:57.341Z,20.02
2022-08-26T05:01:25.503Z,19.93
2022-08-26T05:03:54.980Z,20.02
2022-08-26T05:06:23.695Z,20.11
2022-08-26T05:08:52.774Z,20.20
2022-08-26T05:11:22.054Z,20.24
2022-08-26T05:13:50.624Z,20.32
2022-08-26T05:16:19.532Z,20.25
2022-08-26T05:18:48.578Z,20.28
2022-08-26T05:21:20.037Z,20.41
2022-08-26T05:23:51.445Z,20.51
2022-08-26T05:26:23.086Z,20.59
2022-08-26T05:28:54.865Z,20.62
2022-08-26T05:31:27.421Z,20.72
2022-08-26T05:33:57.635Z,20.84
2022-08-26T05:36:28.731Z,20.90
2022-08-26T05:38:57.832Z,20.99
2022-08-26T05:41:34.279Z,21.12
2022-08-26T05:44:10.275Z,21.19
2022-08-26T05:46:40.180Z,21.26
2022-08-26T05:49:12.329Z,21.35
2022-08-26T05:51:45.296Z,21.43
2022-08-26T05:54:14.678Z,21.51
2022-08-26T05:56:53.643Z,21.60
2022-08-26T05:59:24.607Z,21.70
2022-08-26T06:01:55.266Z,21.79
2022-08-26T06:04:27.264Z,21.88
2022-08-26T06:06:56.633Z,21.97
2022-08-26T06:09:25.461Z,22.04
2022-08-26T06:11:53.698Z,22.11
2022-08-26T06:14:23.122Z,22.23
2022-08-26T06:16:52.209Z,22.35
2022-08-26T06:19:21.667Z,22.46
2022-08-26T06:21:54.061Z,22.54
2022-08-26T06:24:41.823Z,22.64
2022-08-26T06:27:13.884Z,22.76
2022-08-26T06:29:43.987Z,22.94
2022-08-26T06:32:12.631Z,23.02
2022-08-26T06:34:41.059Z,23.11
2022-08-26T06:37:10.082Z,23.15
2022-08-26T06:39:41.135Z,23.21
2022-08-26T06:42:11.889Z,23.29
2022-08-26T06:44:43.994Z,23.35
2022-08-26T06:47:13.462Z,23.38
2022-08-26T06:49:41.728Z,23.49
2022-08-26T06:52:10.108Z,23.49
2022-08-26T06:54:43.243Z,23.62
2022-08-26T06:57:13.201Z,23.74
2022-08-26T06:59:42.789Z,23.98
2022-08-26T07:02:13.489Z,23.96
2022-08-26T07:04:42.229Z,24.06
2022-08-26T07:07:15.128Z,24.20
2022-08-26T07:09:43.426Z,24.22
2022-08-26T07:12:11.765Z,24.43
2022-08-26T07:14:39.867Z,24.40
2022-08-26T07:17:14.009Z,24.63
2022-08-26T07:19:43.132Z,24.77
2022-08-26T07:22:11.779Z,24.93
2022-08-26T07:24:42.481Z,25.13
2022-08-26T07:27:15.738Z,25.32
2022-08-26T07:29:45.024Z,25.57
2022-08-26T07:32:15.897Z,25.89
2022-08-26T07:34:45.828Z,26.20
2022-08-26T07:37:14.168Z,26.44
2022-08-26T07:39:43.310Z,26.58
2022-08-26T07:42:15.354Z,26.74
2022-08-26T07:44:44.193Z,27.16
2022-08-26T07:47:24.706Z,27.40
2022-08-26T07:49:56.226Z,27.68
2022-08-26T07:52:27.697Z,27.99
2022-08-26T07:54:58.565Z,28.21
2022-08-26T07:57:28.348Z,28.64
2022-08-26T07:59:56.761Z,28.75
2022-08-26T08:02:26.249Z,28.92
2022-08-26T08:04:56.807Z,29.13
2022-08-26T08:07:25.775Z,29.60
2022-08-26T08:10:21.150Z,29.75
2022-08-26T08:12:50.101Z,29.92
2022-08-26T08:15:25.070Z,30.23
2022-08-26T08:17:55.599Z,30.52
2022-08-26T08:20:28.363Z,30.89
2022-08-26T08:22:57.093Z,31.12
2022-08-26T08:25:25.800Z,31.37
2022-08-26T08:27:55.011Z,31.32
2022-08-26T08:30:25.351Z,31.47
2022-08-26T08:32:54.094Z,31.65
2022-08-26T08:35:24.358Z,31.91
2022-08-26T08:37:57.185Z,31.79
2022-08-26T08:40:27.709Z,32.03
2022-08-26T08:42:59.413Z,31.92
2022-08-26T08:45:37.356Z,32.08
2022-08-26T08:48:09.119Z,32.18
2022-08-26T08:50:52.212Z,32.26
2022-08-26T08:53:43.115Z,32.77
2022-08-26T08:56:31.055Z,32.79
2022-08-26T08:59:16.512Z,32.08
2022-08-26T09:02:13.201Z,32.57
2022-08-26T09:05:07.177Z,32.89
2022-08-26T09:07:48.321Z,32.94
2022-08-26T09:10:22.556Z,33.15
2022-08-26T09:12:52.357Z,33.55
2022-08-26T09:15:30.591Z,33.42
2022-08-26T09:18:11.792Z,33.61
2022-08-26T09:20:55.496Z,33.85
2022-08-26T09:23:25.252Z,33.99
2022-08-26T09:25:59.998Z,33.50
2022-08-26T09:28:31.119Z,34.08
2022-08-26T09:31:22.003Z,34.37
2022-08-26T09:34:04.663Z,34.07
2022-08-26T09:36:48.590Z,34.29
2022-08-26T09:39:39.397Z,34.51
2022-08-26T09:42:22.704Z,34.61
2022-08-26T09:44:57.818Z,34.34
2022-08-26T09:47:53.231Z,34.30
2022-08-26T09:50:34.015Z,34.53
2022-08-26T09:53:32.313Z,33.98
2022-08-26T09:56:32.207Z,34.52
2022-08-26T09:59:02.002Z,34.36
2022-08-26T10:01:43.689Z,34.72
2022-08-26T10:04:19.927Z,34.51
2022-08-26T10:07:05.013Z,34.52
2022-08-26T10:09:43.384Z,34.58
2022-08-26T10:12:21.665Z,34.82
2022-08-26T10:14:56.309Z,34.69
2022-08-26T10:17:48.565Z,34.40
2022-08-26T10:20:26.259Z,34.32
2022-08-26T10:23:00.428Z,33.86
2022-08-26T10:25:46.730Z,33.36
2022-08-26T10:28:58.205Z,33.85
2022-08-26T10:31:40.610Z,33.80
2022-08-26T10:34:12.562Z,34.27
2022-08-26T10:37:16.269Z,33.98
2022-08-26T10:40:07.728Z,33.80
2022-08-26T10:42:41.819Z,34.12
2022-08-26T10:45:16.957Z,34.30
2022-08-26T10:48:03.359Z,34.36
2022-08-26T10:50:37.297Z,34.45
2022-08-26T10:53:12.073Z,34.02
2022-08-26T10:55:53.782Z,33.94
2022-08-26T10:58:41.034Z,34.08
2022-08-26T11:01:44.013Z,34.07
2022-08-26T11:04:23.172Z,33.64
2022-08-26T11:07:31.806Z,33.57
2022-08-26T11:10:22.611Z,33.90
2022-08-26T11:12:59.710Z,33.62
2022-08-26T11:15:29.438Z,33.34
2022-08-26T11:18:04.155Z,33.18
2022-08-26T11:20:41.526Z,33.33
2022-08-26T11:23:09.882Z,33.14
2022-08-26T11:25:57.186Z,33.41
2022-08-26T11:28:52.310Z,33.13
2022-08-26T11:31:26.989Z,32.87
2022-08-26T11:34:07.145Z,32.89
2022-08-26T11:36:42.154Z,32.92
2022-08-26T11:39:21.401Z,32.77
2022-08-26T11:41:53.091Z,32.34
2022-08-26T11:44:26.587Z,32.44
2022-08-26T11:47:00.782Z,32.43
2022-08-26T11:49:31.652Z,32.31
2022-08-26T11:52:08.752Z,32.30
2022-08-26T11:54:37.152Z,32.22
2022-08-26T11:57:09.522Z,32.05
2022-08-26T11:59:42.515Z,32.06
2022-08-26T12:02:15.424Z,32.03
2022-08-26T12:04:48.942Z,31.72
2022-08-26T12:07:23.886Z,31.80
2022-08-26T12:09:59.177Z,31.76
2022-08-26T12:12:34.974Z,31.71
2022-08-26T12:15:06.685Z,31.71
2022-08-26T12:17:34.939Z,31.50
2022-08-26T12:20:16.903Z,31.55
2022-08-26T12:22:48.109Z,31.29
2022-08-26T12:25:24.330Z,31.36
2022-08-26T12:27:54.027Z,31.36
2022-08-26T12:30:24.465Z,31.38
2022-08-26T12:33:22.482Z,31.38
2022-08-26T12:35:56.426Z,31.43
2022-08-26T12:38:27.315Z,31.60
2022-08-26T12:40:57.027Z,31.54
2022-08-26T12:43:45.969Z,31.58
2022-08-26T12:46:24.385Z,31.61
2022-08-26T12:48:52.694Z,31.54
2022-08-26T12:51:27.511Z,31.73
2022-08-26T12:53:56.385Z,31.57
2022-08-26T12:56:33.972Z,31.50
2022-08-26T12:59:26.465Z,31.61
2022-08-26T13:01:55.255Z,31.50
2022-08-26T13:04:42.144Z,31.46
2022-08-26T13:07:13.477Z,31.58
2022-08-26T13:09:41.615Z,31.56
2022-08-26T13:12:11.696Z,31.52
2022-08-26T13:14:40.562Z,31.56
2022-08-26T13:17:09.107Z,31.46
2022-08-26T13:19:37.581Z,31.22
2022-08-26T13:22:07.584Z,31.13
2022-08-26T13:24:41.161Z,31.11
2022-08-26T13:27:12.228Z,31.15
2022-08-26T13:29:40.522Z,31.13
2022-08-26T13:32:09.540Z,31.34
2022-08-26T13:34:39.357Z,31.15
2022-08-26T13:37:07.450Z,31.15
2022-08-26T13:39:35.700Z,31.09
2022-08-26T13:42:04.397Z,31.08
2022-08-26T13:44:32.584Z,31.11
2022-08-26T13:47:00.727Z,31.29
2022-08-26T13:49:29.335Z,31.30
2022-08-26T13:51:57.368Z,31.15
2022-08-26T13:54:25.624Z,31.00
2022-08-26T13:56:54.233Z,30.95
2022-08-26T13:59:22.425Z,30.99
2022-08-26T14:01:50.710Z,31.05
2022-08-26T14:04:27.044Z,31.04
2022-08-26T14:06:55.797Z,30.90
2022-08-26T14:09:24.661Z,30.87
2022-08-26T14:11:54.599Z,30.82
2022-08-26T14:14:23.687Z,30.82
2022-08-26T14:16:59.364Z,30.71
2022-08-26T14:19:32.127Z,30.67
2022-08-26T14:22:01.418Z,30.76
2022-08-26T14:24:29.965Z,30.77
2022-08-26T14:26:58.697Z,30.79
2022-08-26T14:29:27.257Z,30.65
2022-08-26T14:31:57.242Z,30.88
2022-08-26T14:34:28.789Z,30.85
2022-08-26T14:36:57.223Z,30.91
2022-08-26T14:39:25.428Z,30.97
2022-08-26T14:41:56.707Z,30.83
2022-08-26T14:44:30.556Z,30.98
2022-08-26T14:47:01.466Z,31.02
2022-08-26T14:49:31.404Z,30.96
2022-08-26T14:51:59.624Z,30.97
2022-08-26T14:54:29.493Z,31.09
2022-08-26T14:56:59.185Z,31.08
2022-08-26T14:59:31.069Z,31.09
2022-08-26T15:02:00.845Z,31.00
2022-08-26T15:04:29.443Z,31.00
2022-08-26T15:06:59.756Z,31.08
2022-08-26T15:09:29.566Z,31.08
2022-08-26T15:11:57.989Z,30.96
2022-08-26T15:14:28.613Z,30.85
2022-08-26T15:16:59.472Z,30.68
2022-08-26T15:19:27.971Z,30.61
2022-08-26T15:21:56.780Z,30.58
2022-08-26T15:24:26.871Z,30.44
2022-08-26T15:26:55.320Z,30.45
2022-08-26T15:29:26.696Z,30.41
2022-08-26T15:31:57.200Z,30.33
2022-08-26T15:34:26.644Z,30.32
2022-08-26T15:36:59.771Z,30.28
2022-08-26T15:39:27.904Z,30.26
2022-08-26T15:41:56.343Z,30.19
2022-08-26T15:44:26.203Z,30.18
2022-08-26T15:46:58.417Z,30.13
2022-08-26T15:49:27.732Z,30.10
2022-08-26T15:51:55.871Z,30.07
2022-08-26T15:54:24.553Z,30.02
2022-08-26T15:56:53.806Z,29.93
2022-08-26T15:59:22.596Z,29.88
2022-08-26T16:01:52.137Z,29.88
2022-08-26T16:04:21.128Z,29.79
2022-08-26T16:06:51.482Z,29.75
2022-08-26T16:09:24.322Z,29.70
2022-08-26T16:11:55.075Z,29.59
2022-08-26T16:14:24.080Z,29.50
2022-08-26T16:16:53.159Z,29.50
2022-08-26T16:19:22.094Z,29.40
2022-08-26T16:21:51.482Z,29.32
2022-08-26T16:24:28.438Z,29.24
2022-08-26T16:26:58.502Z,29.13
2022-08-26T16:29:27.721Z,29.06
2022-08-26T16:31:56.010Z,28.97
2022-08-26T16:34:24.283Z,28.98
2022-08-26T16:36:53.147Z,28.92
2022-08-26T16:39:21.240Z,28.84
2022-08-26T16:41:49.382Z,28.72
2022-08-26T16:44:17.872Z,28.64
2022-08-26T16:46:49.171Z,28.58
2022-08-26T16:49:17.870Z,28.54
2022-08-26T16:51:46.849Z,28.44
2022-08-26T16:54:15.074Z,28.39
2022-08-26T16:56:43.668Z,28.32
2022-08-26T16:59:11.895Z,28.35
2022-08-26T17:01:40.075Z,28.28
2022-08-26T17:04:08.673Z,28.21
2022-08-26T17:06:37.399Z,28.15
2022-08-26T17:09:06.179Z,28.12
2022-08-26T17:11:35.354Z,28.10
2022-08-26T17:14:04.430Z,27.97
2022-08-26T17:16:32.584Z,27.92
2022-08-26T17:19:01.507Z,27.94
2022-08-26T17:21:31.683Z,27.90
2022-08-26T17:24:00.518Z,27.77
2022-08-26T17:26:28.910Z,27.69
2022-08-26T17:28:59.091Z,27.55
2022-08-26T17:31:27.413Z,27.51
2022-08-26T17:33:56.042Z,27.58
2022-08-26T17:36:28.127Z,27.48
2022-08-26T17:38:58.482Z,27.34
2022-08-26T17:41:27.442Z,27.44
2022-08-26T17:43:55.894Z,27.39
2022-08-26T17:46:24.780Z,27.34
2022-08-26T17:48:53.033Z,27.44
2022-08-26T17:51:23.424Z,27.40
2022-08-26T17:53:52.792Z,27.33
2022-08-26T17:56:25.617Z,27.23
2022-08-26T17:58:56.873Z,27.03
2022-08-26T18:01:27.237Z,26.81
2022-08-26T18:04:00.280Z,26.75
2022-08-26T18:06:30.647Z,26.47
2022-08-26T18:09:00.758Z,26.40
2022-08-26T18:11:31.411Z,26.23
2022-08-26T18:14:00.428Z,25.98
2022-08-26T18:16:31.691Z,25.95
2022-08-26T18:19:00.998Z,25.81
2022-08-26T18:21:29.209Z,25.64
2022-08-26T18:23:57.506Z,25.68
2022-08-26T18:26:32.380Z,25.59
2022-08-26T18:29:01.146Z,25.63
2022-08-26T18:31:31.642Z,25.55
2022-08-26T18:34:01.719Z,25.44
2022-08-26T18:36:33.367Z,25.42
2022-08-26T18:39:04.137Z,25.45
2022-08-26T18:41:38.732Z,25.38
2022-08-26T18:44:09.472Z,25.33
2022-08-26T18:46:40.299Z,25.23
2022-08-26T18:49:10.031Z,25.15
2022-08-26T18:51:38.445Z,25.07
2022-08-26T18:54:07.730Z,24.97
2022-08-26T18:56:37.664Z,24.89
2022-08-26T18:59:08.377Z,24.84
2022-08-26T19:01:40.494Z,24.75
2022-08-26T19:04:14.096Z,24.69
2022-08-26T19:06:47.781Z,24.67
2022-08-26T19:09:18.034Z,24.55
2022-08-26T19:11:47.041Z,24.50
2022-08-26T19:14:18.784Z,24.52
2022-08-26T19:16:49.131Z,24.45
2022-08-26T19:19:17.295Z,24.23
2022-08-26T19:21:46.978Z,24.07
2022-08-26T19:24:17.668Z,23.85
2022-08-26T19:26:49.233Z,23.75
2022-08-26T19:29:22.502Z,23.78
2022-08-26T19:31:50.727Z,23.71
2022-08-26T19:34:20.769Z,23.58
2022-08-26T19:36:50.512Z,23.47
2022-08-26T19:39:19.820Z,23.38
2022-08-26T19:41:48.039Z,23.20
2022-08-26T19:44:39.474Z,23.24
2022-08-26T19:47:09.918Z,23.25
2022-08-26T19:49:39.013Z,23.25
2022-08-26T19:52:08.250Z,23.31
2022-08-26T19:54:36.592Z,23.26
2022-08-26T19:57:05.664Z,23.21
2022-08-26T19:59:33.916Z,23.30
2022-08-26T20:02:07.115Z,23.25
2022-08-26T20:04:39.208Z,23.19
2022-08-26T20:07:09.089Z,23.31
2022-08-26T20:09:37.736Z,23.36
2022-08-26T20:12:07.129Z,23.37
2022-08-26T20:14:36.516Z,23.33
2022-08-26T20:17:06.278Z,23.21
2022-08-26T20:19:53.558Z,23.29
2022-08-26T20:22:22.233Z,23.32
2022-08-26T20:24:50.640Z,23.19
2022-08-26T20:27:19.259Z,23.15
2022-08-26T20:29:47.481Z,23.17
2022-08-26T20:32:15.968Z,23.01
2022-08-26T20:34:44.103Z,23.01
2022-08-26T20:37:12.290Z,23.11
2022-08-26T20:39:41.430Z,22.96
2022-08-26T20:42:20.528Z,22.79
2022-08-26T20:44:54.397Z,22.79
2022-08-26T20:47:23.479Z,22.49
2022-08-26T20:49:52.527Z,22.43
2022-08-26T20:52:20.834Z,22.36
2022-08-26T20:54:49.149Z,22.44
2022-08-26T20:57:17.594Z,22.47
2022-08-26T20:59:45.676Z,22.38
2022-08-26T21:02:14.186Z,22.39
2022-08-26T21:04:42.627Z,22.41
2022-08-26T21:07:10.855Z,22.45
2022-08-26T21:09:38.959Z,22.48
2022-08-26T21:12:07.580Z,22.50
2022-08-26T21:14:35.647Z,22.50
2022-08-26T21:17:04.846Z,22.46
2022-08-26T21:19:34.044Z,22.45
2022-08-26T21:22:02.120Z,22.32
2022-08-26T21:24:30.322Z,22.22
2022-08-26T21:26:59.067Z,22.21
2022-08-26T21:29:27.150Z,22.25
2022-08-26T21:31:55.407Z,22.28
2022-08-26T21:34:24.022Z,22.30
2022-08-26T21:36:52.056Z,22.22
2022-08-26T21:39:20.279Z,22.31
2022-08-26T21:41:48.778Z,22.38
2022-08-26T21:44:17.818Z,22.31
2022-08-26T21:46:46.699Z,22.22
2022-08-26T21:49:16.140Z,22.27
2022-08-26T21:51:47.721Z,22.38
2022-08-26T21:54:18.061Z,22.44
2022-08-26T21:56:47.534Z,22.44
2022-08-26T21:59:18.513Z,22.44
2022-08-26T22:01:47.063Z,22.36
2022-08-26T22:04:16.451Z,22.38
2022-08-26T22:06:50.157Z,22.31
2022-08-26T22:09:22.677Z,22.29
2022-08-26T22:11:52.187Z,22.22
2022-08-26T22:14:30.509Z,22.19
2022-08-26T22:16:59.814Z,22.28
2022-08-26T22:19:31.797Z,22.29
2022-08-26T22:22:03.907Z,22.27
2022-08-26T22:24:32.715Z,22.27
2022-08-26T22:27:00.869Z,22.36
2022-08-26T22:29:29.303Z,22.31
2022-08-26T22:31:57.771Z,22.31
2022-08-26T22:34:26.296Z,22.21
2022-08-26T22:36:54.746Z,22.26
2022-08-26T22:39:25.301Z,22.28
2022-08-26T22:41:54.485Z,22.19
2022-08-26T22:44:23.866Z,22.15
2022-08-26T22:46:57.001Z,22.03
2022-08-26T22:49:25.799Z,21.96
2022-08-26T22:51:54.470Z,21.91
2022-08-26T22:54:22.609Z,22.04
2022-08-26T22:56:51.141Z,22.01
2022-08-26T22:59:19.313Z,22.00
2022-08-26T23:01:47.776Z,21.88
2022-08-26T23:04:16.310Z,21.78
2022-08-26T23:06:47.495Z,21.69
2022-08-26T23:09:18.719Z,21.67
2022-08-26T23:11:48.413Z,21.65
2022-08-26T23:14:18.408Z,21.69
2022-08-26T23:16:47.819Z,21.67
2022-08-26T23:19:22.891Z,21.68
2022-08-26T23:21:51.129Z,21.61
2022-08-26T23:24:19.437Z,21.52
2022-08-26T23:26:47.653Z,21.55
2022-08-26T23:29:16.248Z,21.48
2022-08-26T23:31:44.709Z,21.51
2022-08-26T23:34:32.389Z,21.53
2022-08-26T23:37:02.212Z,21.43
2022-08-26T23:39:36.235Z,21.43
2022-08-26T23:42:06.613Z,21.51
2022-08-26T23:44:35.034Z,21.55
2022-08-26T23:47:05.068Z,21.48
2022-08-26T23:49:33.988Z,21.48
2022-08-26T23:52:22.078Z,21.45
2022-08-26T23:54:52.377Z,21.40
2022-08-26T23:57:23.004Z,21.38
2022-08-26T23:59:51.783Z,21.21
